createdAt,value
2022-10-30T00:04:49.039Z,98690.56
2022-10-30T00:09:50.835Z,98691.34
2022-10-30T00:14:52.618Z,98676.47
2022-10-30T00:19:54.423Z,98675.69
2022-10-30T00:24:56.525Z,98666.28
2022-10-30T00:29:58.335Z,98667.03
2022-10-30T00:35:00.369Z,98665.88
2022-10-30T00:40:02.370Z,98658.00
2022-10-30T00:45:04.481Z,98659.19
2022-10-30T00:50:12.587Z,98646.94
2022-10-30T00:55:19.818Z,98644.19
2022-10-30T01:00:24.540Z,98646.16
2022-10-30T01:05:28.853Z,98647.72
2022-10-30T01:10:30.893Z,98634.78
2022-10-30T01:15:41.979Z,98626.19
2022-10-30T01:21:20.006Z,98628.16
2022-10-30T01:26:59.370Z,98617.59
2022-10-30T01:32:21.355Z,98612.88
2022-10-30T01:37:31.779Z,98603.06
2022-10-30T01:42:52.574Z,98597.19
2022-10-30T01:48:01.154Z,98604.56
2022-10-30T01:53:28.158Z,98596.31
2022-10-30T01:58:41.371Z,98597.09
2022-10-30T02:03:44.685Z,98604.16
2022-10-30T02:08:46.538Z,98601.00
2022-10-30T02:13:51.928Z,98602.50
2022-10-30T02:18:54.167Z,98596.97
2022-10-30T02:23:56.012Z,98600.88
2022-10-30T02:28:57.860Z,98600.09
2022-10-30T02:33:59.682Z,98586.41
2022-10-30T02:39:02.346Z,98588.03
2022-10-30T02:44:05.010Z,98591.91
2022-10-30T02:49:06.913Z,98592.72
2022-10-30T02:54:08.980Z,98589.22
2022-10-30T02:59:10.909Z,98582.97
2022-10-30T03:04:12.882Z,98593.94
2022-10-30T03:09:14.743Z,98597.78
2022-10-30T03:14:16.624Z,98586.00
2022-10-30T03:19:19.744Z,98582.09
2022-10-30T03:24:21.654Z,98585.97
2022-10-30T03:29:23.527Z,98586.75
2022-10-30T03:34:25.537Z,98589.13
2022-10-30T03:39:27.421Z,98599.34
2022-10-30T03:44:29.213Z,98600.53
2022-10-30T03:49:31.730Z,98595.47
2022-10-30T03:54:35.608Z,98598.59
2022-10-30T03:59:37.637Z,98587.97
2022-10-30T04:05:02.187Z,98585.25
2022-10-30T04:10:04.313Z,98585.25
2022-10-30T04:15:08.667Z,98579.00
2022-10-30T04:20:10.954Z,98579.41
2022-10-30T04:25:13.212Z,98568.84
2022-10-30T04:30:15.716Z,98562.56
2022-10-30T04:35:19.405Z,98553.97
2022-10-30T04:40:23.440Z,98550.06
2022-10-30T04:45:31.045Z,98555.91
2022-10-30T04:50:34.571Z,98553.91
2022-10-30T04:55:36.587Z,98542.84
2022-10-30T05:00:38.415Z,98543.56
2022-10-30T05:05:56.988Z,98541.16
2022-10-30T05:10:59.546Z,98539.56
2022-10-30T05:16:01.400Z,98539.84
2022-10-30T05:21:03.537Z,98542.53
2022-10-30T05:26:05.418Z,98553.47
2022-10-30T05:31:07.395Z,98542.53
2022-10-30T05:36:35.266Z,98543.34
2022-10-30T05:41:38.156Z,98548.00
2022-10-30T05:46:40.062Z,98551.56
2022-10-30T05:51:58.585Z,98548.91
2022-10-30T05:57:00.509Z,98553.56
2022-10-30T06:02:03.884Z,98548.88
2022-10-30T06:07:06.370Z,98551.28
2022-10-30T06:12:09.336Z,98550.56
2022-10-30T06:17:24.979Z,98549.47
2022-10-30T06:22:35.104Z,98548.31
2022-10-30T06:27:46.062Z,98544.41
2022-10-30T06:32:48.809Z,98551.41
2022-10-30T06:37:51.316Z,98562.50
2022-10-30T06:42:54.711Z,98561.38
2022-10-30T06:48:26.141Z,98570.38
2022-10-30T06:53:29.995Z,98579.81
2022-10-30T06:58:47.661Z,98579.06
2022-10-30T07:04:09.885Z,98586.13
2022-10-30T07:09:12.646Z,98588.53
2022-10-30T07:14:14.795Z,98586.25
2022-10-30T07:19:28.623Z,98574.22
2022-10-30T07:24:31.483Z,98589.50
2022-10-30T07:29:51.759Z,98584.03
2022-10-30T07:34:59.962Z,98596.53
2022-10-30T07:40:28.018Z,98591.84
2022-10-30T07:45:54.031Z,98600.50
2022-10-30T07:51:11.045Z,98597.34
2022-10-30T07:56:12.901Z,98600.84
2022-10-30T08:01:40.989Z,98600.00
2022-10-30T08:06:55.947Z,98596.38
2022-10-30T08:11:57.826Z,98594.00
2022-10-30T08:16:59.616Z,98592.28
2022-10-30T08:22:02.306Z,98588.22
2022-10-30T08:27:08.090Z,98586.47
2022-10-30T08:32:10.842Z,98589.91
2022-10-30T08:37:31.120Z,98582.28
2022-10-30T08:42:33.147Z,98582.19
2022-10-30T08:47:39.004Z,98590.63
2022-10-30T08:52:42.516Z,98586.41
2022-10-30T08:57:45.348Z,98573.88
2022-10-30T09:02:47.380Z,98578.66
2022-10-30T09:08:21.560Z,98575.00
2022-10-30T09:13:52.325Z,98576.22
2022-10-30T09:18:54.311Z,98577.69
2022-10-30T09:23:57.904Z,98574.44
2022-10-30T09:29:11.706Z,98577.44
2022-10-30T09:34:16.112Z,98591.22
2022-10-30T09:39:21.569Z,98583.94
2022-10-30T09:45:08.058Z,98578.16
2022-10-30T09:50:14.518Z,98601.09
2022-10-30T09:55:33.977Z,98590.34
2022-10-30T10:01:09.377Z,98591.47
2022-10-30T10:06:18.827Z,98592.03
2022-10-30T10:11:56.036Z,98587.94
2022-10-30T10:17:01.979Z,98579.28
2022-10-30T10:22:14.454Z,98583.06
2022-10-30T10:27:35.060Z,98581.47
2022-10-30T10:32:51.872Z,98577.09
2022-10-30T10:38:17.892Z,98576.69
2022-10-30T10:43:22.411Z,98575.50
2022-10-30T10:49:04.106Z,98574.00
2022-10-30T10:54:19.344Z,98566.28
2022-10-30T10:59:32.970Z,98573.47
2022-10-30T11:04:41.907Z,98569.66
2022-10-30T11:09:44.976Z,98577.44
2022-10-30T11:14:46.966Z,98569.34
2022-10-30T11:19:52.345Z,98569.16
2022-10-30T11:24:54.142Z,98564.72
2022-10-30T11:29:59.779Z,98556.75
2022-10-30T11:35:07.449Z,98559.31
2022-10-30T11:40:12.279Z,98554.75
2022-10-30T11:45:24.319Z,98562.31
2022-10-30T11:50:32.916Z,98553.97
2022-10-30T11:55:54.988Z,98550.97
2022-10-30T12:01:21.203Z,98553.69
2022-10-30T12:06:22.980Z,98563.94
2022-10-30T12:11:32.666Z,98548.03
2022-10-30T12:16:34.648Z,98553.28
2022-10-30T12:21:39.991Z,98536.81
2022-10-30T12:26:46.478Z,98553.09
2022-10-30T12:32:19.390Z,98553.94
2022-10-30T12:37:30.008Z,98550.34
2022-10-30T12:42:38.031Z,98548.00
2022-10-30T12:47:48.721Z,98538.03
2022-10-30T12:53:34.614Z,98535.41
2022-10-30T12:58:39.756Z,98530.06
2022-10-30T13:04:10.721Z,98522.00
2022-10-30T13:09:37.982Z,98515.78
2022-10-30T13:14:50.034Z,98517.38
2022-10-30T13:19:51.939Z,98524.25
2022-10-30T13:25:14.371Z,98504.88
2022-10-30T13:30:20.083Z,98505.47
2022-10-30T13:35:33.663Z,98496.72
2022-10-30T13:40:44.724Z,98500.47
2022-10-30T13:46:11.412Z,98492.88
2022-10-30T13:51:35.791Z,98498.53
2022-10-30T13:56:38.092Z,98502.56
2022-10-30T14:01:47.494Z,98490.41
2022-10-30T14:07:10.729Z,98512.03
2022-10-30T14:12:53.793Z,98496.09
2022-10-30T14:18:14.968Z,98498.94
2022-10-30T14:23:20.313Z,98495.91
2022-10-30T14:28:22.288Z,98513.41
2022-10-30T14:33:54.524Z,98501.81
2022-10-30T14:39:00.363Z,98509.94
2022-10-30T14:44:25.261Z,98506.25
2022-10-30T14:49:45.860Z,98519.13
2022-10-30T14:55:29.341Z,98512.00
2022-10-30T15:00:37.317Z,98512.38
2022-10-30T15:05:49.096Z,98527.84
2022-10-30T15:11:22.222Z,98514.66
2022-10-30T15:16:27.615Z,98514.91
2022-10-30T15:21:34.125Z,98514.97
2022-10-30T15:26:39.767Z,98517.06
2022-10-30T15:31:41.994Z,98529.28
2022-10-30T15:36:44.692Z,98529.63
2022-10-30T15:41:51.658Z,98543.88
2022-10-30T15:46:57.418Z,98528.09
2022-10-30T15:52:01.040Z,98540.34
2022-10-30T16:02:29.808Z,98538.81
2022-10-30T16:07:32.352Z,98535.16
2022-10-30T16:12:36.128Z,98533.75
2022-10-30T16:17:38.737Z,98540.00
2022-10-30T16:22:41.020Z,98545.31
2022-10-30T16:27:44.903Z,98544.00
2022-10-30T16:32:55.787Z,98533.94
2022-10-30T16:37:58.219Z,98538.78
2022-10-30T16:43:03.396Z,98538.13
2022-10-30T16:53:22.863Z,98538.88
2022-10-30T16:58:28.336Z,98541.34
2022-10-30T17:03:37.653Z,98539.16
2022-10-30T17:08:43.837Z,98541.34
2022-10-30T17:13:54.590Z,98546.53
2022-10-30T17:19:20.747Z,98543.03
2022-10-30T17:24:28.241Z,98545.41
2022-10-30T17:29:42.230Z,98546.63
2022-10-30T17:34:44.028Z,98557.63
2022-10-30T17:39:45.822Z,98560.81
2022-10-30T17:44:47.909Z,98560.09
2022-10-30T17:49:49.769Z,98562.56
2022-10-30T17:54:51.621Z,98565.00
2022-10-30T17:59:53.452Z,98560.38
2022-10-30T18:04:55.558Z,98565.13
2022-10-30T18:09:57.348Z,98569.84
2022-10-30T18:14:59.238Z,98567.50
2022-10-30T18:20:01.023Z,98569.59
2022-10-30T18:25:02.905Z,98567.19
2022-10-30T18:30:05.574Z,98560.47
2022-10-30T18:35:36.453Z,98559.34
2022-10-30T18:40:38.644Z,98548.78
2022-10-30T18:45:42.146Z,98564.84
2022-10-30T18:50:44.246Z,98559.31
2022-10-30T19:01:10.939Z,98551.91
2022-10-30T19:06:16.958Z,98548.47
2022-10-30T19:11:24.897Z,98552.09
2022-10-30T19:16:28.240Z,98555.69
2022-10-30T19:21:33.723Z,98553.38
2022-10-30T19:26:35.907Z,98556.53
2022-10-30T19:31:38.371Z,98557.31
2022-10-30T19:36:40.494Z,98555.75
2022-10-30T19:41:42.897Z,98561.66
2022-10-30T19:46:45.047Z,98560.84
2022-10-30T19:51:47.682Z,98561.63
2022-10-30T19:56:49.837Z,98566.72
2022-10-30T20:01:52.219Z,98567.50
2022-10-30T20:06:57.243Z,98577.72
2022-10-30T20:12:01.736Z,98576.16
2022-10-30T20:17:03.811Z,98568.69
2022-10-30T20:22:05.738Z,98573.00
2022-10-30T20:27:10.046Z,98577.72
2022-10-30T20:32:12.377Z,98575.34
2022-10-30T20:37:14.566Z,98579.28
2022-10-30T20:42:20.648Z,98580.06
2022-10-30T20:47:22.867Z,98580.06
2022-10-30T20:52:24.719Z,98577.72
2022-10-30T20:57:26.652Z,98587.88
2022-10-30T21:02:28.743Z,98584.75
2022-10-30T21:07:31.839Z,98589.47
2022-10-30T21:12:33.676Z,98591.03
2022-10-30T21:17:35.483Z,98602.44
2022-10-30T21:22:37.280Z,98598.50
2022-10-30T21:27:39.229Z,98603.59
2022-10-30T21:32:41.083Z,98605.56
2022-10-30T21:37:42.914Z,98598.91
2022-10-30T21:42:48.724Z,98608.31
2022-10-30T21:47:53.708Z,98604.38
2022-10-30T21:52:55.561Z,98610.63
2022-10-30T21:57:57.565Z,98618.50
2022-10-30T22:02:59.591Z,98610.63
2022-10-30T22:08:01.693Z,98613.78
2022-10-30T22:13:04.029Z,98603.94
2022-10-30T22:18:05.995Z,98609.44
2022-10-30T22:23:07.800Z,98608.63
2022-10-30T22:28:09.648Z,98612.94
2022-10-30T22:33:11.496Z,98612.13
2022-10-30T22:38:14.113Z,98607.50
2022-10-30T22:48:17.814Z,98620.84
2022-10-30T22:53:19.630Z,98623.84
2022-10-30T22:58:22.471Z,98616.72
2022-10-30T23:03:24.347Z,98625.72
2022-10-30T23:08:26.601Z,98621.34
2022-10-30T23:13:28.822Z,98630.41
2022-10-30T23:18:31.960Z,98620.19
2022-10-30T23:23:38.297Z,98626.47
2022-10-30T23:28:40.859Z,98631.22
2022-10-30T23:33:42.701Z,98639.47
2022-10-30T23:38:44.809Z,98644.19
2022-10-30T23:43:46.691Z,98641.06
2022-10-30T23:48:49.249Z,98636.75
2022-10-30T23:53:51.123Z,98639.53
2022-10-30T23:58:53.149Z,98634.44
